sensor_id;sensor_type;location;lat;lon;timestamp;pressure;altitude;pressure_sealevel;temperature;humidity
36664;BME280;53333;51.976;20.144;2023-05-29T00:01:01;100496.09;;;13.51;34.82
36664;BME280;53333;51.976;20.144;2023-05-29T00:03:33;100493.41;;;13.51;34.68
36664;BME280;53333;51.976;20.144;2023-05-29T00:06:08;100492.56;;;13.51;34.61
36664;BME280;53333;51.976;20.144;2023-05-29T00:08:41;100493.50;;;13.50;34.68
36664;BME280;53333;51.976;20.144;2023-05-29T00:11:14;100492.72;;;13.48;34.79
36664;BME280;53333;51.976;20.144;2023-05-29T00:13:47;100495.50;;;13.46;34.67
36664;BME280;53333;51.976;20.144;2023-05-29T00:16:20;100489.34;;;13.44;34.93
36664;BME280;53333;51.976;20.144;2023-05-29T00:18:53;100492.97;;;13.43;34.75
36664;BME280;53333;51.976;20.144;2023-05-29T00:21:27;100490.38;;;13.41;34.89
36664;BME280;53333;51.976;20.144;2023-05-29T00:23:59;100494.03;;;13.40;34.81
36664;BME280;53333;51.976;20.144;2023-05-29T00:26:32;100487.78;;;13.40;34.75
36664;BME280;53333;51.976;20.144;2023-05-29T00:29:05;100489.69;;;13.38;34.89
36664;BME280;53333;51.976;20.144;2023-05-29T00:31:38;100486.31;;;13.34;34.79
36664;BME280;53333;51.976;20.144;2023-05-29T00:34:11;100487.47;;;13.29;34.85
36664;BME280;53333;51.976;20.144;2023-05-29T00:36:45;100487.91;;;13.21;34.81
36664;BME280;53333;51.976;20.144;2023-05-29T00:39:19;100489.19;;;13.14;35.18
36664;BME280;53333;51.976;20.144;2023-05-29T00:41:51;100485.97;;;13.07;35.10
36664;BME280;53333;51.976;20.144;2023-05-29T00:44:24;100483.72;;;12.99;35.17
36664;BME280;53333;51.976;20.144;2023-05-29T00:46:57;100480.41;;;12.94;35.34
36664;BME280;53333;51.976;20.144;2023-05-29T00:49:30;100487.66;;;12.92;35.20
36664;BME280;53333;51.976;20.144;2023-05-29T00:52:04;100493.97;;;12.91;35.28
36664;BME280;53333;51.976;20.144;2023-05-29T00:54:38;100486.97;;;12.88;35.32
36664;BME280;53333;51.976;20.144;2023-05-29T00:57:12;100491.63;;;12.85;35.44
36664;BME280;53333;51.976;20.144;2023-05-29T00:59:45;100491.78;;;12.82;35.31
36664;BME280;53333;51.976;20.144;2023-05-29T01:02:19;100490.13;;;12.79;35.44
36664;BME280;53333;51.976;20.144;2023-05-29T01:04:52;100485.88;;;12.75;35.37
36664;BME280;53333;51.976;20.144;2023-05-29T01:07:27;100488.72;;;12.72;35.39
36664;BME280;53333;51.976;20.144;2023-05-29T01:10:00;100485.16;;;12.71;35.33
36664;BME280;53333;51.976;20.144;2023-05-29T01:12:35;100487.84;;;12.71;35.38
36664;BME280;53333;51.976;20.144;2023-05-29T01:15:21;100483.53;;;12.69;35.35
36664;BME280;53333;51.976;20.144;2023-05-29T01:18:04;100489.81;;;12.68;35.46
36664;BME280;53333;51.976;20.144;2023-05-29T01:20:40;100490.78;;;12.67;35.46
36664;BME280;53333;51.976;20.144;2023-05-29T01:23:22;100483.75;;;12.64;35.42
36664;BME280;53333;51.976;20.144;2023-05-29T01:26:07;100481.31;;;12.60;35.48
36664;BME280;53333;51.976;20.144;2023-05-29T01:28:44;100485.09;;;12.56;35.58
36664;BME280;53333;51.976;20.144;2023-05-29T01:31:20;100478.03;;;12.54;35.59
36664;BME280;53333;51.976;20.144;2023-05-29T01:33:54;100471.88;;;12.52;35.67
36664;BME280;53333;51.976;20.144;2023-05-29T01:36:27;100473.69;;;12.52;35.65
36664;BME280;53333;51.976;20.144;2023-05-29T01:39:00;100482.69;;;12.51;35.52
36664;BME280;53333;51.976;20.144;2023-05-29T01:41:33;100475.56;;;12.50;35.63
36664;BME280;53333;51.976;20.144;2023-05-29T01:44:11;100482.75;;;12.49;35.62
36664;BME280;53333;51.976;20.144;2023-05-29T01:46:44;100472.03;;;12.49;35.68
36664;BME280;53333;51.976;20.144;2023-05-29T01:49:17;100479.19;;;12.49;35.60
36664;BME280;53333;51.976;20.144;2023-05-29T01:51:51;100474.88;;;12.46;35.62
36664;BME280;53333;51.976;20.144;2023-05-29T01:54:23;100474.06;;;12.44;35.70
36664;BME280;53333;51.976;20.144;2023-05-29T01:56:56;100470.59;;;12.42;35.61
36664;BME280;53333;51.976;20.144;2023-05-29T01:59:31;100468.94;;;12.40;35.62
36664;BME280;53333;51.976;20.144;2023-05-29T02:02:05;100475.19;;;12.40;35.71
36664;BME280;53333;51.976;20.144;2023-05-29T02:04:38;100474.41;;;12.38;35.61
36664;BME280;53333;51.976;20.144;2023-05-29T02:07:11;100470.00;;;12.37;35.71
36664;BME280;53333;51.976;20.144;2023-05-29T02:09:44;100471.88;;;12.35;35.69
36664;BME280;53333;51.976;20.144;2023-05-29T02:12:17;100463.03;;;12.33;35.77
36664;BME280;53333;51.976;20.144;2023-05-29T02:14:51;100461.41;;;12.30;35.74
36664;BME280;53333;51.976;20.144;2023-05-29T02:17:24;100467.00;;;12.26;35.69
36664;BME280;53333;51.976;20.144;2023-05-29T02:19:57;100461.94;;;12.20;35.80
36664;BME280;53333;51.976;20.144;2023-05-29T02:22:31;100464.00;;;12.14;35.87
36664;BME280;53333;51.976;20.144;2023-05-29T02:25:04;100461.53;;;12.10;35.96
36664;BME280;53333;51.976;20.144;2023-05-29T02:27:37;100460.91;;;12.05;35.93
36664;BME280;53333;51.976;20.144;2023-05-29T02:30:12;100462.00;;;12.01;36.04
36664;BME280;53333;51.976;20.144;2023-05-29T02:32:45;100462.16;;;11.97;36.09
36664;BME280;53333;51.976;20.144;2023-05-29T02:35:18;100461.38;;;11.95;36.04
36664;BME280;53333;51.976;20.144;2023-05-29T02:37:53;100457.88;;;11.93;36.08
36664;BME280;53333;51.976;20.144;2023-05-29T02:40:26;100458.84;;;11.92;36.06
36664;BME280;53333;51.976;20.144;2023-05-29T02:43:02;100460.66;;;11.92;36.20
36664;BME280;53333;51.976;20.144;2023-05-29T02:45:36;100456.28;;;11.89;36.08
36664;BME280;53333;51.976;20.144;2023-05-29T02:48:09;100462.50;;;11.90;36.16
36664;BME280;53333;51.976;20.144;2023-05-29T02:50:42;100453.69;;;11.88;36.26
36664;BME280;53333;51.976;20.144;2023-05-29T02:53:15;100462.56;;;11.88;36.23
36664;BME280;53333;51.976;20.144;2023-05-29T02:55:48;100463.47;;;11.89;36.15
36664;BME280;53333;51.976;20.144;2023-05-29T02:58:20;100458.97;;;11.89;36.13
36664;BME280;53333;51.976;20.144;2023-05-29T03:00:55;100450.94;;;11.89;36.27
36664;BME280;53333;51.976;20.144;2023-05-29T03:03:27;100451.00;;;11.88;36.30
36664;BME280;53333;51.976;20.144;2023-05-29T03:06:02;100451.09;;;11.86;36.11
36664;BME280;53333;51.976;20.144;2023-05-29T03:08:35;100452.97;;;11.84;36.25
36664;BME280;53333;51.976;20.144;2023-05-29T03:11:11;100452.97;;;11.84;36.16
36664;BME280;53333;51.976;20.144;2023-05-29T03:13:44;100450.38;;;11.82;36.35
36664;BME280;53333;51.976;20.144;2023-05-29T03:16:19;100454.75;;;11.84;36.21
36664;BME280;53333;51.976;20.144;2023-05-29T03:18:52;100461.78;;;11.86;36.29
36664;BME280;53333;51.976;20.144;2023-05-29T03:21:25;100457.28;;;11.87;36.32
36664;BME280;53333;51.976;20.144;2023-05-29T03:23:58;100459.81;;;11.90;36.28
36664;BME280;53333;51.976;20.144;2023-05-29T03:26:31;100463.34;;;11.92;36.22
36664;BME280;53333;51.976;20.144;2023-05-29T03:29:04;100469.56;;;11.92;35.98
36664;BME280;53333;51.976;20.144;2023-05-29T03:31:39;100470.25;;;11.96;36.16
36664;BME280;53333;51.976;20.144;2023-05-29T03:34:19;100466.50;;;12.00;36.24
36664;BME280;53333;51.976;20.144;2023-05-29T03:36:59;100475.16;;;12.05;36.24
36664;BME280;53333;51.976;20.144;2023-05-29T03:39:34;100488.25;;;12.11;36.02
36664;BME280;53333;51.976;20.144;2023-05-29T03:42:08;100478.94;;;12.18;36.12
36664;BME280;53333;51.976;20.144;2023-05-29T03:44:41;100475.97;;;12.25;36.09
36664;BME280;53333;51.976;20.144;2023-05-29T03:47:17;100479.13;;;12.33;35.93
36664;BME280;53333;51.976;20.144;2023-05-29T03:49:50;100473.38;;;12.41;35.88
36664;BME280;53333;51.976;20.144;2023-05-29T03:52:23;100475.56;;;12.50;35.97
36664;BME280;53333;51.976;20.144;2023-05-29T03:54:58;100483.06;;;12.61;35.78
36664;BME280;53333;51.976;20.144;2023-05-29T03:57:31;100478.09;;;12.70;35.71
36664;BME280;53333;51.976;20.144;2023-05-29T04:00:05;100476.72;;;12.79;35.81
36664;BME280;53333;51.976;20.144;2023-05-29T04:02:45;100484.03;;;12.93;35.71
36664;BME280;53333;51.976;20.144;2023-05-29T04:05:18;100487.84;;;13.05;35.49
36664;BME280;53333;51.976;20.144;2023-05-29T04:07:51;100489.97;;;13.16;35.49
36664;BME280;53333;51.976;20.144;2023-05-29T04:10:34;100486.63;;;13.28;35.50
36664;BME280;53333;51.976;20.144;2023-05-29T04:13:08;100492.38;;;13.38;35.48
36664;BME280;53333;51.976;20.144;2023-05-29T04:15:42;100484.69;;;13.48;35.22
36664;BME280;53333;51.976;20.144;2023-05-29T04:18:16;100486.69;;;13.60;35.30
36664;BME280;53333;51.976;20.144;2023-05-29T04:20:49;100486.94;;;13.71;35.04
36664;BME280;53333;51.976;20.144;2023-05-29T04:23:22;100482.78;;;13.81;35.08
36664;BME280;53333;51.976;20.144;2023-05-29T04:25:55;100490.31;;;13.91;34.93
36664;BME280;53333;51.976;20.144;2023-05-29T04:28:30;100494.22;;;14.01;35.05
36664;BME280;53333;51.976;20.144;2023-05-29T04:31:04;100478.41;;;14.11;34.97
36664;BME280;53333;51.976;20.144;2023-05-29T04:33:39;100497.47;;;14.22;34.85
36664;BME280;53333;51.976;20.144;2023-05-29T04:36:12;100495.00;;;14.33;34.80
36664;BME280;53333;51.976;20.144;2023-05-29T04:38:48;100493.38;;;14.45;34.82
36664;BME280;53333;51.976;20.144;2023-05-29T04:41:24;100490.91;;;14.57;34.62
36664;BME280;53333;51.976;20.144;2023-05-29T04:44:01;100488.59;;;14.66;34.62
36664;BME280;53333;51.976;20.144;2023-05-29T04:46:43;100493.31;;;14.77;34.43
36664;BME280;53333;51.976;20.144;2023-05-29T04:49:18;100498.88;;;14.88;34.75
36664;BME280;53333;51.976;20.144;2023-05-29T04:51:52;100491.91;;;15.00;34.60
36664;BME280;53333;51.976;20.144;2023-05-29T04:54:25;100493.75;;;15.14;34.45
36664;BME280;53333;51.976;20.144;2023-05-29T04:56:59;100496.63;;;15.25;34.41
36664;BME280;53333;51.976;20.144;2023-05-29T04:59:37;100491.50;;;15.35;34.44
36664;BME280;53333;51.976;20.144;2023-05-29T05:02:10;100493.44;;;15.48;34.38
36664;BME280;53333;51.976;20.144;2023-05-29T05:04:44;100479.94;;;15.62;34.15
36664;BME280;53333;51.976;20.144;2023-05-29T05:07:18;100480.81;;;15.77;34.26
36664;BME280;53333;51.976;20.144;2023-05-29T05:09:51;100487.09;;;15.90;34.03
36664;BME280;53333;51.976;20.144;2023-05-29T05:12:27;100478.22;;;16.03;34.00
36664;BME280;53333;51.976;20.144;2023-05-29T05:15:00;100483.66;;;16.15;34.05
36664;BME280;53333;51.976;20.144;2023-05-29T05:17:34;100480.88;;;16.30;33.73
36664;BME280;53333;51.976;20.144;2023-05-29T05:20:08;100477.25;;;16.44;33.85
36664;BME280;53333;51.976;20.144;2023-05-29T05:22:42;100480.81;;;16.57;33.67
36664;BME280;53333;51.976;20.144;2023-05-29T05:25:16;100474.59;;;16.69;33.84
36664;BME280;53333;51.976;20.144;2023-05-29T05:27:49;100478.16;;;16.83;33.81
36664;BME280;53333;51.976;20.144;2023-05-29T05:30:24;100476.25;;;16.98;33.76
36664;BME280;53333;51.976;20.144;2023-05-29T05:32:57;100480.44;;;17.15;33.55
36664;BME280;53333;51.976;20.144;2023-05-29T05:35:32;100474.91;;;17.29;33.34
36664;BME280;53333;51.976;20.144;2023-05-29T05:38:05;100482.66;;;17.47;33.36
36664;BME280;53333;51.976;20.144;2023-05-29T05:40:39;100487.06;;;17.60;33.47
36664;BME280;53333;51.976;20.144;2023-05-29T05:43:18;100487.88;;;17.74;33.28
36664;BME280;53333;51.976;20.144;2023-05-29T05:46:04;100484.94;;;17.90;33.38
36664;BME280;53333;51.976;20.144;2023-05-29T05:48:40;100481.00;;;18.07;33.25
36664;BME280;53333;51.976;20.144;2023-05-29T05:51:21;100490.44;;;18.25;33.19
36664;BME280;53333;51.976;20.144;2023-05-29T05:53:55;100494.53;;;18.42;33.19
36664;BME280;53333;51.976;20.144;2023-05-29T05:56:28;100495.06;;;18.59;33.07
36664;BME280;53333;51.976;20.144;2023-05-29T05:59:01;100491.19;;;18.74;33.01
36664;BME280;53333;51.976;20.144;2023-05-29T06:01:34;100490.03;;;18.90;32.94
36664;BME280;53333;51.976;20.144;2023-05-29T06:04:07;100491.66;;;19.03;32.91
36664;BME280;53333;51.976;20.144;2023-05-29T06:06:42;100494.38;;;19.15;32.88
36664;BME280;53333;51.976;20.144;2023-05-29T06:09:15;100496.19;;;19.26;32.72
36664;BME280;53333;51.976;20.144;2023-05-29T06:11:48;100494.38;;;19.37;32.52
36664;BME280;53333;51.976;20.144;2023-05-29T06:14:21;100487.97;;;19.50;32.60
36664;BME280;53333;51.976;20.144;2023-05-29T06:16:54;100492.22;;;19.64;32.75
36664;BME280;53333;51.976;20.144;2023-05-29T06:19:29;100493.97;;;19.76;32.36
36664;BME280;53333;51.976;20.144;2023-05-29T06:22:06;100490.13;;;19.90;32.40
36664;BME280;53333;51.976;20.144;2023-05-29T06:24:41;100489.72;;;20.06;32.59
36664;BME280;53333;51.976;20.144;2023-05-29T06:27:15;100482.41;;;20.18;32.56
36664;BME280;53333;51.976;20.144;2023-05-29T06:29:49;100491.63;;;20.26;32.51
36664;BME280;53333;51.976;20.144;2023-05-29T06:32:22;100491.44;;;20.39;32.42
36664;BME280;53333;51.976;20.144;2023-05-29T06:34:55;100497.28;;;20.56;32.49
36664;BME280;53333;51.976;20.144;2023-05-29T06:37:29;100497.13;;;20.68;32.18
36664;BME280;53333;51.976;20.144;2023-05-29T06:40:03;100496.50;;;20.86;32.33
36664;BME280;53333;51.976;20.144;2023-05-29T06:42:39;100492.00;;;20.96;32.46
36664;BME280;53333;51.976;20.144;2023-05-29T06:45:18;100491.50;;;21.12;32.33
36664;BME280;53333;51.976;20.144;2023-05-29T06:47:51;100494.47;;;21.30;32.02
36664;BME280;53333;51.976;20.144;2023-05-29T06:50:24;100488.16;;;21.51;31.98
36664;BME280;53333;51.976;20.144;2023-05-29T06:52:58;100491.19;;;21.67;32.08
36664;BME280;53333;51.976;20.144;2023-05-29T06:55:43;100492.53;;;21.83;31.87
36664;BME280;53333;51.976;20.144;2023-05-29T06:58:16;100479.38;;;21.98;31.82
36664;BME280;53333;51.976;20.144;2023-05-29T07:00:48;100487.56;;;22.07;32.05
36664;BME280;53333;51.976;20.144;2023-05-29T07:03:32;100495.56;;;21.89;32.48
36664;BME280;53333;51.976;20.144;2023-05-29T07:06:07;100496.66;;;21.77;32.52
36664;BME280;53333;51.976;20.144;2023-05-29T07:08:42;100499.19;;;21.59;32.76
36664;BME280;53333;51.976;20.144;2023-05-29T07:11:16;100496.00;;;21.54;32.51
36664;BME280;53333;51.976;20.144;2023-05-29T07:13:49;100504.69;;;21.48;32.77
36664;BME280;53333;51.976;20.144;2023-05-29T07:16:21;100506.53;;;21.47;32.72
36664;BME280;53333;51.976;20.144;2023-05-29T07:19:09;100497.91;;;21.63;32.88
36664;BME280;53333;51.976;20.144;2023-05-29T07:21:56;100499.66;;;21.74;32.98
36664;BME280;53333;51.976;20.144;2023-05-29T07:24:30;100508.25;;;21.89;32.81
36664;BME280;53333;51.976;20.144;2023-05-29T07:27:05;100498.16;;;22.10;32.91
36664;BME280;53333;51.976;20.144;2023-05-29T07:29:39;100502.47;;;22.23;32.68
36664;BME280;53333;51.976;20.144;2023-05-29T07:32:12;100505.63;;;22.28;32.56
36664;BME280;53333;51.976;20.144;2023-05-29T07:34:45;100500.78;;;22.31;32.58
36664;BME280;53333;51.976;20.144;2023-05-29T07:37:19;100508.09;;;22.41;32.59
36664;BME280;53333;51.976;20.144;2023-05-29T07:39:53;100508.66;;;22.44;32.42
36664;BME280;53333;51.976;20.144;2023-05-29T07:42:45;100514.09;;;22.44;32.66
36664;BME280;53333;51.976;20.144;2023-05-29T07:45:18;100507.81;;;22.44;32.64
36664;BME280;53333;51.976;20.144;2023-05-29T07:47:53;100504.78;;;22.57;32.56
36664;BME280;53333;51.976;20.144;2023-05-29T07:50:26;100508.63;;;22.64;32.08
36664;BME280;53333;51.976;20.144;2023-05-29T07:52:59;100504.91;;;22.75;32.12
36664;BME280;53333;51.976;20.144;2023-05-29T07:55:35;100503.03;;;22.85;32.15
36664;BME280;53333;51.976;20.144;2023-05-29T07:58:08;100499.84;;;22.99;31.77
36664;BME280;53333;51.976;20.144;2023-05-29T08:00:44;100502.84;;;23.06;31.66
36664;BME280;53333;51.976;20.144;2023-05-29T08:03:18;100510.16;;;23.06;31.63
36664;BME280;53333;51.976;20.144;2023-05-29T08:06:28;100515.91;;;23.02;31.95
36664;BME280;53333;51.976;20.144;2023-05-29T08:09:02;100507.28;;;23.17;31.66
36664;BME280;53333;51.976;20.144;2023-05-29T08:11:39;100504.50;;;23.36;31.56
36664;BME280;53333;51.976;20.144;2023-05-29T08:14:12;100508.03;;;23.47;31.51
36664;BME280;53333;51.976;20.144;2023-05-29T08:16:45;100511.13;;;23.62;31.37
36664;BME280;53333;51.976;20.144;2023-05-29T08:19:19;100517.03;;;23.85;31.21
36664;BME280;53333;51.976;20.144;2023-05-29T08:21:52;100511.13;;;23.89;31.05
36664;BME280;53333;51.976;20.144;2023-05-29T08:24:24;100513.19;;;24.05;30.74
36664;BME280;53333;51.976;20.144;2023-05-29T08:26:59;100503.06;;;24.34;30.68
36664;BME280;53333;51.976;20.144;2023-05-29T08:29:31;100494.56;;;24.55;30.12
36664;BME280;53333;51.976;20.144;2023-05-29T08:32:04;100498.63;;;24.69;30.20
36664;BME280;53333;51.976;20.144;2023-05-29T08:34:47;100509.00;;;24.83;29.70
36664;BME280;53333;51.976;20.144;2023-05-29T08:37:21;100512.31;;;24.95;29.91
36664;BME280;53333;51.976;20.144;2023-05-29T08:39:56;100513.00;;;25.23;29.54
36664;BME280;53333;51.976;20.144;2023-05-29T08:42:32;100510.13;;;25.59;29.53
36664;BME280;53333;51.976;20.144;2023-05-29T08:45:06;100512.03;;;26.01;28.92
36664;BME280;53333;51.976;20.144;2023-05-29T08:47:40;100498.78;;;26.72;28.13
36664;BME280;53333;51.976;20.144;2023-05-29T08:50:18;100512.41;;;27.86;27.09
36664;BME280;53333;51.976;20.144;2023-05-29T08:52:52;100507.75;;;28.87;25.72
36664;BME280;53333;51.976;20.144;2023-05-29T08:55:25;100508.31;;;29.65;24.82
36664;BME280;53333;51.976;20.144;2023-05-29T08:58:02;100510.94;;;30.25;24.19
36664;BME280;53333;51.976;20.144;2023-05-29T09:00:36;100505.41;;;30.90;24.03
36664;BME280;53333;51.976;20.144;2023-05-29T09:03:10;100504.88;;;31.58;23.63
36664;BME280;53333;51.976;20.144;2023-05-29T09:05:43;100506.72;;;31.99;23.34
36664;BME280;53333;51.976;20.144;2023-05-29T09:08:16;100506.41;;;32.35;23.07
36664;BME280;53333;51.976;20.144;2023-05-29T09:10:49;100494.09;;;32.51;23.10
36664;BME280;53333;51.976;20.144;2023-05-29T09:13:23;100501.38;;;32.66;23.05
36664;BME280;53333;51.976;20.144;2023-05-29T09:15:57;100497.13;;;32.83;22.71
36664;BME280;53333;51.976;20.144;2023-05-29T09:18:32;100493.09;;;32.92;22.99
36664;BME280;53333;51.976;20.144;2023-05-29T09:21:07;100500.75;;;32.97;22.75
36664;BME280;53333;51.976;20.144;2023-05-29T09:23:43;100493.47;;;33.03;22.73
36664;BME280;53333;51.976;20.144;2023-05-29T09:26:16;100495.38;;;33.09;22.47
36664;BME280;53333;51.976;20.144;2023-05-29T09:28:52;100494.97;;;33.12;22.23
36664;BME280;53333;51.976;20.144;2023-05-29T09:31:25;100495.81;;;33.06;22.12
36664;BME280;53333;51.976;20.144;2023-05-29T09:33:57;100493.94;;;33.06;22.03
36664;BME280;53333;51.976;20.144;2023-05-29T09:36:38;100496.25;;;33.16;21.84
36664;BME280;53333;51.976;20.144;2023-05-29T09:39:11;100492.59;;;33.16;21.95
36664;BME280;53333;51.976;20.144;2023-05-29T09:41:48;100486.44;;;33.13;22.09
36664;BME280;53333;51.976;20.144;2023-05-29T09:44:24;100498.38;;;33.07;21.77
36664;BME280;53333;51.976;20.144;2023-05-29T09:47:00;100496.91;;;32.98;21.45
36664;BME280;53333;51.976;20.144;2023-05-29T09:49:34;100496.56;;;33.60;21.34
36664;BME280;53333;51.976;20.144;2023-05-29T09:52:10;100503.69;;;34.65;21.29
36664;BME280;53333;51.976;20.144;2023-05-29T09:54:46;100506.81;;;35.62;20.76
36664;BME280;53333;51.976;20.144;2023-05-29T09:57:21;100497.34;;;36.49;20.67
36664;BME280;53333;51.976;20.144;2023-05-29T09:59:56;100495.84;;;37.13;20.96
36664;BME280;53333;51.976;20.144;2023-05-29T10:02:29;100484.56;;;36.72;20.87
36664;BME280;53333;51.976;20.144;2023-05-29T10:05:03;100491.78;;;35.52;21.50
36664;BME280;53333;51.976;20.144;2023-05-29T10:07:36;100483.69;;;34.31;22.40
36664;BME280;53333;51.976;20.144;2023-05-29T10:10:10;100484.56;;;33.14;22.96
36664;BME280;53333;51.976;20.144;2023-05-29T10:12:44;100489.94;;;32.07;23.42
36664;BME280;53333;51.976;20.144;2023-05-29T10:15:19;100481.06;;;31.22;23.86
36664;BME280;53333;51.976;20.144;2023-05-29T10:17:54;100483.19;;;30.41;24.41
36664;BME280;53333;51.976;20.144;2023-05-29T10:20:30;100482.00;;;29.78;24.54
36664;BME280;53333;51.976;20.144;2023-05-29T10:23:04;100473.09;;;29.16;25.06
36664;BME280;53333;51.976;20.144;2023-05-29T10:25:37;100467.50;;;28.56;25.25
36664;BME280;53333;51.976;20.144;2023-05-29T10:28:11;100471.56;;;28.14;25.53
36664;BME280;53333;51.976;20.144;2023-05-29T10:30:46;100468.50;;;27.86;25.37
36664;BME280;53333;51.976;20.144;2023-05-29T10:33:28;100472.06;;;27.55;25.66
36664;BME280;53333;51.976;20.144;2023-05-29T10:36:06;100468.19;;;27.33;25.62
36664;BME280;53333;51.976;20.144;2023-05-29T10:38:40;100462.59;;;27.10;25.79
36664;BME280;53333;51.976;20.144;2023-05-29T10:41:29;100463.34;;;26.79;25.92
36664;BME280;53333;51.976;20.144;2023-05-29T10:44:03;100457.19;;;26.52;25.51
36664;BME280;53333;51.976;20.144;2023-05-29T10:49:30;100455.47;;;26.43;26.04
36664;BME280;53333;51.976;20.144;2023-05-29T10:52:04;100445.19;;;26.45;25.70
36664;BME280;53333;51.976;20.144;2023-05-29T10:54:41;100453.75;;;26.50;25.79
36664;BME280;53333;51.976;20.144;2023-05-29T10:57:23;100454.59;;;26.59;25.55
36664;BME280;53333;51.976;20.144;2023-05-29T11:00:05;100453.59;;;26.68;25.62
36664;BME280;53333;51.976;20.144;2023-05-29T11:02:45;100446.22;;;26.69;25.93
36664;BME280;53333;51.976;20.144;2023-05-29T11:05:20;100447.97;;;26.70;25.91
36664;BME280;53333;51.976;20.144;2023-05-29T11:07:55;100450.00;;;26.76;25.57
36664;BME280;53333;51.976;20.144;2023-05-29T11:10:41;100442.97;;;26.73;25.57
36664;BME280;53333;51.976;20.144;2023-05-29T11:13:22;100447.78;;;26.71;25.79
36664;BME280;53333;51.976;20.144;2023-05-29T11:16:06;100438.84;;;26.53;25.91
36664;BME280;53333;51.976;20.144;2023-05-29T11:18:43;100438.69;;;26.38;25.77
36664;BME280;53333;51.976;20.144;2023-05-29T11:21:31;100439.72;;;26.28;25.79
36664;BME280;53333;51.976;20.144;2023-05-29T11:24:05;100435.59;;;26.24;26.00
36664;BME280;53333;51.976;20.144;2023-05-29T11:26:44;100441.06;;;26.24;26.22
36664;BME280;53333;51.976;20.144;2023-05-29T11:29:21;100444.53;;;26.35;26.26
36664;BME280;53333;51.976;20.144;2023-05-29T11:31:54;100446.91;;;26.46;26.46
36664;BME280;53333;51.976;20.144;2023-05-29T11:34:30;100449.13;;;26.51;26.46
36664;BME280;53333;51.976;20.144;2023-05-29T11:37:05;100446.38;;;26.59;26.33
36664;BME280;53333;51.976;20.144;2023-05-29T11:39:38;100445.38;;;26.60;26.45
36664;BME280;53333;51.976;20.144;2023-05-29T11:42:12;100441.09;;;26.57;26.38
36664;BME280;53333;51.976;20.144;2023-05-29T11:44:45;100437.16;;;26.60;26.55
36664;BME280;53333;51.976;20.144;2023-05-29T11:47:17;100440.91;;;26.59;26.61
36664;BME280;53333;51.976;20.144;2023-05-29T11:49:51;100434.78;;;26.65;26.31
36664;BME280;53333;51.976;20.144;2023-05-29T11:52:25;100436.50;;;26.74;26.46
36664;BME280;53333;51.976;20.144;2023-05-29T11:55:05;100437.16;;;26.76;26.43
36664;BME280;53333;51.976;20.144;2023-05-29T11:57:37;100443.97;;;26.64;26.48
36664;BME280;53333;51.976;20.144;2023-05-29T12:00:12;100435.97;;;26.30;26.78
36664;BME280;53333;51.976;20.144;2023-05-29T12:02:45;100423.06;;;25.89;26.76
36664;BME280;53333;51.976;20.144;2023-05-29T12:05:19;100436.63;;;25.56;27.29
36664;BME280;53333;51.976;20.144;2023-05-29T12:07:53;100429.78;;;25.44;27.24
36664;BME280;53333;51.976;20.144;2023-05-29T12:10:28;100426.06;;;25.53;26.95
36664;BME280;53333;51.976;20.144;2023-05-29T12:13:01;100424.38;;;25.68;27.05
36664;BME280;53333;51.976;20.144;2023-05-29T12:15:34;100413.44;;;25.77;26.99
36664;BME280;53333;51.976;20.144;2023-05-29T12:18:06;100423.03;;;25.81;26.90
36664;BME280;53333;51.976;20.144;2023-05-29T12:20:40;100413.13;;;25.80;26.67
36664;BME280;53333;51.976;20.144;2023-05-29T12:23:14;100408.31;;;25.73;26.80
36664;BME280;53333;51.976;20.144;2023-05-29T12:25:48;100412.09;;;25.72;26.89
36664;BME280;53333;51.976;20.144;2023-05-29T12:28:21;100412.78;;;25.74;27.00
36664;BME280;53333;51.976;20.144;2023-05-29T12:30:58;100414.50;;;25.76;26.92
36664;BME280;53333;51.976;20.144;2023-05-29T12:33:31;100402.50;;;25.77;26.58
36664;BME280;53333;51.976;20.144;2023-05-29T12:36:04;100415.16;;;25.78;26.91
36664;BME280;53333;51.976;20.144;2023-05-29T12:38:47;100405.47;;;25.83;26.50
36664;BME280;53333;51.976;20.144;2023-05-29T12:41:24;100402.00;;;25.89;26.87
36664;BME280;53333;51.976;20.144;2023-05-29T12:43:58;100407.31;;;25.91;26.72
36664;BME280;53333;51.976;20.144;2023-05-29T12:46:34;100393.97;;;25.80;26.71
36664;BME280;53333;51.976;20.144;2023-05-29T12:49:11;100396.84;;;25.53;26.80
36664;BME280;53333;51.976;20.144;2023-05-29T12:51:45;100398.63;;;25.28;26.84
36664;BME280;53333;51.976;20.144;2023-05-29T12:54:20;100392.75;;;25.15;26.64
36664;BME280;53333;51.976;20.144;2023-05-29T12:56:53;100392.88;;;25.05;26.33
36664;BME280;53333;51.976;20.144;2023-05-29T12:59:27;100391.31;;;25.02;26.36
36664;BME280;53333;51.976;20.144;2023-05-29T13:02:00;100387.59;;;25.12;26.25
36664;BME280;53333;51.976;20.144;2023-05-29T13:04:33;100387.97;;;25.25;26.29
36664;BME280;53333;51.976;20.144;2023-05-29T13:07:06;100377.84;;;25.44;26.50
36664;BME280;53333;51.976;20.144;2023-05-29T13:09:40;100390.53;;;25.53;26.38
36664;BME280;53333;51.976;20.144;2023-05-29T13:12:13;100374.81;;;25.63;26.88
36664;BME280;53333;51.976;20.144;2023-05-29T13:14:46;100381.34;;;25.70;26.31
36664;BME280;53333;51.976;20.144;2023-05-29T13:17:18;100366.28;;;25.66;26.46
36664;BME280;53333;51.976;20.144;2023-05-29T13:19:51;100374.97;;;25.70;26.62
36664;BME280;53333;51.976;20.144;2023-05-29T13:22:24;100369.19;;;25.81;26.74